Time;durP1;ratioP1;P1;durP2;ratioP2;P2;SDS_P1;SDS_P2;PMS_P1;PMS_P2;Temp;Humidity;BMP_temperature;BMP_pressure;BME280_temperature;BME280_humidity;BME280_pressure;Samples;Min_cycle;Max_cycle;Signal;HPM_P1;HPM_P2
2022/07/16 00:01:22;;;;;;;510.83;464.08;;;;;;;24.49;53.80;99441.69;280110;35;7290;-80
2022/07/16 00:01:45;;;;;;;482.12;436.21;;;;;;;24.35;54.00;99436.91;2494929;27;20509;-80
2022/07/16 00:01:56;;;;;;;515.03;468.43;;;;;;;24.36;54.13;99438.56;353001;28;1209;-80
2022/07/16 00:02:06;;;;;;;508.02;461.45;;;;;;;24.33;53.96;99426.34;349486;28;1289;-79
2022/07/16 00:02:16;;;;;;;502.80;456.23;;;;;;;24.33;53.65;99438.88;349121;28;1386;-79
2022/07/16 00:02:27;;;;;;;506.73;460.20;;;;;;;24.32;53.70;99435.38;349121;28;1374;-79
2022/07/16 00:02:38;;;;;;;515.45;468.70;;;;;;;24.29;54.01;99434.84;350612;28;1157;-79
2022/07/16 00:02:48;;;;;;;518.05;471.08;;;;;;;24.32;53.68;99439.88;349265;28;903;-79
2022/07/16 00:02:59;;;;;;;513.08;466.10;;;;;;;24.31;53.91;99440.88;349778;28;1326;-79
2022/07/16 00:03:09;;;;;;;513.27;466.27;;;;;;;24.32;53.48;99435.38;348506;28;1583;-79
2022/07/16 00:03:20;;;;;;;520.67;473.50;;;;;;;24.34;53.39;99435.22;349148;28;1212;-79
2022/07/16 00:03:30;;;;;;;529.58;482.50;;;;;;;24.34;53.74;99433.38;348940;28;1346;-79
2022/07/16 00:03:40;;;;;;;527.53;480.47;;;;;;;24.37;53.52;99437.59;347307;28;1251;-79
2022/07/16 00:04:00;;;;;;;529.15;482.05;;;;;;;24.34;53.70;99432.53;347634;28;931;-79
2022/07/16 00:04:10;;;;;;;515.92;469.38;;;;;;;24.34;53.55;99440.56;344388;28;1396;-79
2022/07/16 00:04:21;;;;;;;512.78;466.35;;;;;;;24.30;53.57;99429.34;343580;28;1337;-79
2022/07/16 00:04:31;;;;;;;521.87;475.23;;;;;;;24.33;53.28;99436.22;346247;28;1253;-79
2022/07/16 00:04:42;;;;;;;526.33;479.47;;;;;;;24.27;53.47;99431.47;347973;28;1053;-79
2022/07/16 00:04:52;;;;;;;522.28;475.40;;;;;;;24.30;53.21;99431.16;344800;28;1323;-79
2022/07/16 00:05:03;;;;;;;521.40;474.53;;;;;;;24.30;53.30;99431.16;346368;28;1209;-79
2022/07/16 00:05:16;;;;;;;519.28;472.38;;;;;;;24.31;53.39;99431.00;349523;28;1348;-79
2022/07/16 00:05:26;;;;;;;522.53;475.60;;;;;;;24.30;53.11;99436.53;348845;28;1392;-79
2022/07/16 00:05:37;;;;;;;525.72;478.65;;;;;;;24.32;53.42;99439.88;345797;28;1359;-79
2022/07/16 00:05:47;;;;;;;530.53;483.33;;;;;;;24.32;53.30;99434.53;343731;28;900;-80
2022/07/16 00:05:58;;;;;;;535.50;488.10;;;;;;;24.34;53.16;99432.53;343679;28;1259;-80
2022/07/16 00:06:08;;;;;;;530.10;482.87;;;;;;;24.37;53.11;99440.25;348791;28;1507;-79
2022/07/16 00:06:19;;;;;;;524.08;477.02;;;;;;;24.37;53.41;99438.41;347648;28;1214;-79
2022/07/16 00:06:29;;;;;;;520.30;473.30;;;;;;;24.37;52.80;99438.41;344906;28;1085;-79
2022/07/16 00:06:40;;;;;;;520.85;473.83;;;;;;;24.38;53.09;99439.25;344708;28;1211;-79
2022/07/16 00:06:50;;;;;;;520.63;473.57;;;;;;;24.37;53.31;99443.78;347359;28;1259;-79
2022/07/16 00:07:00;;;;;;;520.45;473.60;;;;;;;24.37;52.85;99437.59;344904;28;888;-79
2022/07/16 00:07:11;;;;;;;526.50;479.60;;;;;;;24.37;53.16;99437.59;342839;28;1296;-79
2022/07/16 00:07:21;;;;;;;530.93;483.97;;;;;;;24.37;52.89;99438.41;343970;28;1003;-79
2022/07/16 00:07:32;;;;;;;531.65;484.65;;;;;;;24.35;53.30;99442.25;340989;29;944;-79
2022/07/16 00:07:42;;;;;;;528.60;481.67;;;;;;;24.37;53.00;99445.59;340663;28;1212;-79
2022/07/16 00:07:54;;;;;;;525.08;478.27;;;;;;;24.36;53.20;99442.09;338712;29;1240;-79
2022/07/16 00:08:05;;;;;;;517.08;470.42;;;;;;;24.34;53.19;99446.75;339701;29;1579;-80
2022/07/16 00:08:15;;;;;;;515.65;469.17;;;;;;;24.34;53.28;99437.88;341726;28;798;-80
2022/07/16 00:08:26;;;;;;;521.63;475.10;;;;;;;24.34;52.77;99441.41;340518;28;1648;-80
2022/07/16 00:08:36;;;;;;;524.38;477.75;;;;;;;24.34;53.03;99438.72;341105;28;1237;-79
2022/07/16 00:08:47;;;;;;;529.23;482.47;;;;;;;24.34;53.20;99443.25;343363;28;1251;-80
2022/07/16 00:08:57;;;;;;;523.90;477.27;;;;;;;24.33;53.00;99437.06;343281;28;1241;-79
2022/07/16 00:09:07;;;;;;;531.07;484.10;;;;;;;24.34;53.21;99443.25;343379;28;872;-79
2022/07/16 00:09:18;;;;;;;532.87;485.67;;;;;;;24.35;53.18;99442.25;340780;29;1295;-79
2022/07/16 00:09:28;;;;;;;536.42;489.05;;;;;;;24.35;53.15;99444.91;340513;28;1205;-79
2022/07/16 00:09:39;;;;;;;532.57;485.23;;;;;;;24.34;52.90;99437.88;336798;29;1295;-79
2022/07/16 00:09:49;;;;;;;529.47;482.08;;;;;;;24.32;52.91;99438.03;334361;29;1354;-79
2022/07/16 00:09:59;;;;;;;523.77;476.40;;;;;;;24.34;53.02;99440.56;335770;29;1282;-80
2022/07/16 00:10:10;;;;;;;525.40;478.17;;;;;;;24.34;52.93;99436.06;336397;29;1298;-80
2022/07/16 00:10:21;;;;;;;523.40;476.43;;;;;;;24.32;53.03;99434.53;335604;29;1630;-80
2022/07/16 00:10:31;;;;;;;528.58;481.65;;;;;;;24.34;52.49;99440.56;333123;29;1223;-80
2022/07/16 00:10:41;;;;;;;528.03;481.20;;;;;;;24.35;53.02;99444.91;334318;29;1249;-79
2022/07/16 00:10:53;;;;;;;525.65;478.98;;;;;;;24.34;52.52;99443.25;333417;29;1326;-79
2022/07/16 00:11:04;;;;;;;521.33;474.73;;;;;;;24.32;52.63;99445.22;334811;29;1194;-79
2022/07/16 00:11:15;;;;;;;516.50;470.00;;;;;;;24.30;52.61;99442.72;333773;29;1312;-79
2022/07/16 00:11:25;;;;;;;514.67;468.25;;;;;;;24.32;52.88;99445.22;333623;29;1246;-80
2022/07/16 00:11:35;;;;;;;521.47;474.83;;;;;;;24.31;52.98;99438.19;333191;29;1616;-79
2022/07/16 00:11:46;;;;;;;525.10;478.25;;;;;;;24.33;52.69;99446.91;334300;29;1393;-79
2022/07/16 00:11:56;;;;;;;529.50;482.40;;;;;;;24.33;52.69;99441.56;334558;29;1741;-79
2022/07/16 00:12:07;;;;;;;525.87;479.03;;;;;;;24.33;52.59;99436.22;332852;29;2066;-79
2022/07/16 00:12:17;;;;;;;522.47;475.63;;;;;;;24.33;52.78;99446.91;333213;29;1367;-79
2022/07/16 00:12:27;;;;;;;522.17;475.33;;;;;;;24.30;52.54;99436.53;328485;29;2053;-79
2022/07/16 00:12:38;;;;;;;525.78;478.65;;;;;;;24.33;52.77;99439.72;327711;29;2033;-78
2022/07/16 00:12:48;;;;;;;524.03;476.93;;;;;;;24.33;52.92;99438.88;326983;30;1161;-79
2022/07/16 00:12:59;;;;;;;522.05;475.00;;;;;;;24.33;52.60;99438.88;329175;30;1526;-79
2022/07/16 00:13:09;;;;;;;513.67;466.93;;;;;;;24.34;52.61;99445.91;329881;29;1550;-79
2022/07/16 00:13:21;;;;;;;519.13;472.30;;;;;;;24.32;52.63;99445.22;329248;30;1346;-79
2022/07/16 00:13:31;;;;;;;520.92;473.95;;;;;;;24.30;52.51;99442.72;329440;30;840;-79
2022/07/16 00:13:42;;;;;;;521.10;474.23;;;;;;;24.32;52.51;99434.53;329830;29;1295;-79
2022/07/16 00:13:52;;;;;;;511.20;464.63;;;;;;;24.32;52.70;99442.56;325587;30;2139;-79
2022/07/16 00:14:02;;;;;;;513.08;466.55;;;;;;;24.34;52.75;99443.25;323405;30;805;-79
2022/07/16 00:14:13;;;;;;;514.63;467.83;;;;;;;24.35;52.81;99444.91;321280;30;2233;-79
2022/07/16 00:14:23;;;;;;;522.27;475.03;;;;;;;24.34;52.68;99443.25;323482;30;2280;-79
2022/07/16 00:14:34;;;;;;;522.55;475.38;;;;;;;24.34;52.67;99443.25;323286;30;1339;-79
2022/07/16 00:14:44;;;;;;;524.20;476.90;;;;;;;24.34;52.82;99441.41;319477;30;1029;-79
2022/07/16 00:14:54;;;;;;;516.85;469.92;;;;;;;24.35;52.51;99439.56;321948;30;2402;-79
2022/07/16 00:15:05;;;;;;;515.80;468.93;;;;;;;24.37;52.36;99445.59;322522;30;1550;-79
2022/07/16 00:15:16;;;;;;;522.08;475.25;;;;;;;24.37;52.40;99451.81;321567;30;1359;-80
2022/07/16 00:15:26;;;;;;;520.33;473.73;;;;;;;24.37;52.26;99448.28;320391;30;1437;-79
2022/07/16 00:15:36;;;;;;;514.60;468.17;;;;;;;24.36;52.22;99442.09;320345;30;1671;-80
2022/07/16 00:15:48;;;;;;;511.73;465.37;;;;;;;24.34;52.12;99443.25;315151;31;1372;-79
2022/07/16 00:15:59;;;;;;;508.42;462.15;;;;;;;24.33;52.48;99441.56;314709;31;2065;-81
2022/07/16 00:16:09;;;;;;;512.90;466.33;;;;;;;24.31;52.43;99443.56;315707;30;2780;-78
2022/07/16 00:16:20;;;;;;;514.47;467.67;;;;;;;24.34;52.23;99437.88;313224;31;3694;-79
2022/07/16 00:16:30;;;;;;;524.55;477.40;;;;;;;24.34;52.39;99445.91;312186;31;1401;-80
2022/07/16 00:16:41;;;;;;;527.37;480.27;;;;;;;24.33;52.60;99446.91;311542;31;3332;-80
2022/07/16 00:16:51;;;;;;;526.30;479.10;;;;;;;24.33;52.27;99444.25;311348;31;3113;-79
2022/07/16 00:17:01;;;;;;;524.80;477.57;;;;;;;24.33;52.32;99444.25;311625;31;1209;-79
2022/07/16 00:17:12;;;;;;;524.60;477.47;;;;;;;24.31;52.40;99449.75;308980;31;2878;-79
2022/07/16 00:17:22;;;;;;;520.97;474.08;;;;;;;24.29;52.55;99440.19;306079;32;2151;-79
2022/07/16 00:17:33;;;;;;;522.57;475.67;;;;;;;24.29;52.10;99440.19;307417;32;1187;-78
2022/07/16 00:17:43;;;;;;;520.67;473.73;;;;;;;24.30;52.50;99445.38;307736;32;1874;-81
2022/07/16 00:19:15;;;;;;;519.87;472.93;;;;;;;24.32;52.44;99446.06;305606;32;2729;-80
2022/07/16 00:19:23;;;;;;;522.70;476.35;;;;;;;24.25;52.40;99450.38;292886;33;4013;-78
2022/07/16 00:19:34;;;;;;;516.15;469.80;;;;;;;24.27;52.05;99447.53;292827;33;1493;-78
2022/07/16 00:19:44;;;;;;;517.47;470.83;;;;;;;24.28;52.21;99449.22;285417;34;959;-78
2022/07/16 00:19:55;;;;;;;508.80;462.42;;;;;;;24.28;52.32;99443.84;285859;34;3958;-78
2022/07/16 00:20:06;;;;;;;515.40;468.77;;;;;;;24.28;52.05;99442.03;284793;34;4522;-79
2022/07/16 00:20:18;;;;;;;513.78;467.23;;;;;;;24.30;52.22;99449.91;282297;35;1306;-78
2022/07/16 00:20:28;;;;;;;512.53;465.80;;;;;;;24.31;52.19;99449.75;278131;34;4729;-78
2022/07/16 00:20:38;;;;;;;511.00;464.48;;;;;;;24.32;52.04;99450.59;278058;35;6135;-78
2022/07/16 00:20:49;;;;;;;508.23;461.77;;;;;;;24.31;52.20;99440.88;279043;35;1238;-80
2022/07/16 00:21:00;;;;;;;510.00;463.70;;;;;;;24.33;52.09;99444.25;279209;35;1260;-79
2022/07/16 00:21:10;;;;;;;509.73;463.40;;;;;;;24.32;52.14;99448.75;279044;35;14069;-79
2022/07/16 00:21:21;;;;;;;515.70;469.15;;;;;;;24.31;51.79;99438.19;279969;34;6043;-78
2022/07/16 00:21:31;;;;;;;520.70;473.93;;;;;;;24.32;51.96;99446.06;280047;35;863;-78
2022/07/16 00:21:43;;;;;;;522.03;475.30;;;;;;;24.30;51.93;99448.06;276543;35;5254;-78
2022/07/16 00:21:54;;;;;;;521.70;474.98;;;;;;;24.29;52.03;99448.22;273934;35;3952;-78
2022/07/16 00:22:05;;;;;;;525.67;478.77;;;;;;;24.28;52.10;99441.19;271108;35;6402;-79
2022/07/16 00:22:15;;;;;;;521.33;474.43;;;;;;;24.31;51.65;99439.03;274582;36;1319;-79
2022/07/16 00:22:25;;;;;;;508.27;461.75;;;;;;;24.31;51.90;99446.22;271705;35;5653;-79
2022/07/16 00:22:36;;;;;;;508.63;462.17;;;;;;;24.30;52.07;99447.22;270325;36;8287;-79
2022/07/16 00:22:47;;;;;;;503.33;457.15;;;;;;;24.31;51.74;99448.91;269104;36;1234;-79
2022/07/16 00:24:42;;;;;;;475.44;429.47;;;;;;;24.23;51.83;99446.16;2497688;27;20267;-80
2022/07/16 00:24:52;;;;;;;510.50;464.47;;;;;;;24.23;51.83;99443.47;352940;28;1230;-80
2022/07/16 00:25:05;;;;;;;503.25;457.35;;;;;;;24.24;51.79;99448.66;350311;28;835;-80
2022/07/16 00:25:15;;;;;;;504.08;458.20;;;;;;;24.24;51.92;99446.00;347392;28;903;-80
2022/07/16 00:25:26;;;;;;;499.40;453.65;;;;;;;24.27;51.87;99451.03;349718;28;1176;-80
2022/07/16 00:25:36;;;;;;;502.33;456.37;;;;;;;24.28;51.60;99451.88;350622;28;1270;-80
2022/07/16 00:25:47;;;;;;;496.83;450.95;;;;;;;24.27;51.94;99451.03;350588;28;903;-80
2022/07/16 00:25:57;;;;;;;494.20;448.47;;;;;;;24.28;51.90;99449.22;350527;28;1296;-80
2022/07/16 00:26:07;;;;;;;490.30;444.77;;;;;;;24.26;51.83;99443.19;350484;28;1305;-80
2022/07/16 00:26:18;;;;;;;493.70;448.03;;;;;;;24.28;51.77;99444.69;350921;28;1155;-80
2022/07/16 00:26:29;;;;;;;498.73;452.92;;;;;;;24.29;51.65;99445.53;352378;28;1234;-80
2022/07/16 00:26:39;;;;;;;500.70;454.63;;;;;;;24.29;51.67;99441.03;352336;28;1175;-80
2022/07/16 00:26:50;;;;;;;500.88;454.88;;;;;;;24.30;51.60;99447.22;347930;28;1356;-80
2022/07/16 00:27:00;;;;;;;498.67;452.67;;;;;;;24.30;51.57;99436.53;348714;28;1035;-80
2022/07/16 00:27:11;;;;;;;498.10;452.03;;;;;;;24.27;51.47;99442.19;348340;28;800;-80
2022/07/16 00:27:21;;;;;;;497.63;451.40;;;;;;;24.31;51.96;99446.22;350908;28;1168;-80
2022/07/16 00:27:32;;;;;;;497.17;450.83;;;;;;;24.33;51.46;99453.09;347647;28;1262;-80
2022/07/16 00:27:42;;;;;;;494.80;448.63;;;;;;;24.33;51.60;99449.59;347466;28;1215;-80
2022/07/16 00:27:53;;;;;;;491.23;445.27;;;;;;;24.32;51.40;99445.22;347753;28;790;-80
2022/07/16 00:28:03;;;;;;;500.65;454.42;;;;;;;24.31;51.75;99443.56;349026;28;1575;-80
2022/07/16 00:28:14;;;;;;;507.10;460.73;;;;;;;24.32;51.75;99446.06;348381;28;1263;-80
2022/07/16 00:28:24;;;;;;;509.23;462.90;;;;;;;24.32;51.41;99450.59;348384;28;1346;-80
2022/07/16 00:28:35;;;;;;;509.37;462.97;;;;;;;24.34;51.44;99448.59;347556;28;1328;-80
2022/07/16 00:28:45;;;;;;;509.55;463.13;;;;;;;24.33;51.70;99438.88;347879;28;1228;-80
2022/07/16 00:28:56;;;;;;;506.80;460.43;;;;;;;24.34;51.65;99449.44;345233;28;897;-80
2022/07/16 00:29:06;;;;;;;500.75;454.73;;;;;;;24.33;51.74;99452.25;343931;28;1360;-80
2022/07/16 00:29:18;;;;;;;501.80;455.73;;;;;;;24.34;51.60;99448.59;345044;28;1362;-80
2022/07/16 00:29:29;;;;;;;499.52;453.50;;;;;;;24.30;51.38;99448.06;346185;28;899;-80
2022/07/16 00:29:39;;;;;;;496.70;450.60;;;;;;;24.32;51.87;99445.22;343996;28;810;-80
2022/07/16 00:29:49;;;;;;;499.00;452.83;;;;;;;24.31;51.47;99456.94;341772;28;1182;-80
2022/07/16 00:30:00;;;;;;;497.63;451.47;;;;;;;24.30;51.54;99449.91;344353;28;860;-80
2022/07/16 00:30:10;;;;;;;502.77;456.77;;;;;;;24.28;51.64;99449.22;344760;28;971;-80
2022/07/16 00:30:21;;;;;;;501.33;455.27;;;;;;;24.28;52.00;99459.91;342791;28;1350;-80
2022/07/16 00:30:31;;;;;;;501.27;455.17;;;;;;;24.29;52.07;99448.22;342665;28;1275;-80
2022/07/16 00:30:41;;;;;;;502.67;456.43;;;;;;;24.28;51.75;99455.41;341637;29;1023;-80
2022/07/16 00:30:52;;;;;;;505.63;459.35;;;;;;;24.29;51.93;99453.56;341969;28;1226;-80
2022/07/16 00:31:02;;;;;;;511.47;464.97;;;;;;;24.28;51.87;99451.88;341986;28;1273;-80
2022/07/16 00:31:13;;;;;;;507.27;460.92;;;;;;;24.27;51.94;99452.88;339585;29;1015;-80
2022/07/16 00:31:23;;;;;;;504.77;458.50;;;;;;;24.26;51.70;99452.03;342138;28;1288;-80
2022/07/16 00:31:35;;;;;;;498.33;452.20;;;;;;;24.25;51.55;99450.38;343084;28;1221;-80
2022/07/16 00:31:47;;;;;;;494.65;448.52;;;;;;;24.26;51.34;99459.25;340797;28;1324;-80
2022/07/16 00:31:57;;;;;;;495.80;449.70;;;;;;;24.26;52.06;99457.38;342064;28;1292;-80
2022/07/16 00:32:07;;;;;;;497.83;451.83;;;;;;;24.27;52.06;99458.22;344662;28;1221;-80
2022/07/16 00:32:18;;;;;;;493.67;447.77;;;;;;;24.27;52.08;99453.72;341973;28;1314;-80
2022/07/16 00:32:28;;;;;;;495.83;449.83;;;;;;;24.26;51.89;99454.72;342466;28;1276;-80
2022/07/16 00:32:39;;;;;;;499.65;453.40;;;;;;;24.30;51.89;99460.59;338821;28;1373;-80
2022/07/16 00:32:49;;;;;;;502.93;456.70;;;;;;;24.31;51.83;99459.59;339433;28;1358;-80
2022/07/16 00:32:59;;;;;;;502.25;456.02;;;;;;;24.31;52.07;99459.59;338391;29;1219;-80
2022/07/16 00:33:10;;;;;;;491.57;445.50;;;;;;;24.30;51.91;99447.22;337730;29;1489;-80
2022/07/16 00:33:20;;;;;;;480.75;434.92;;;;;;;24.27;52.05;99450.19;339256;29;1352;-80
2022/07/16 00:33:31;;;;;;;473.50;427.77;;;;;;;24.27;52.01;99455.56;336574;29;1976;-80
2022/07/16 00:33:41;;;;;;;474.37;428.87;;;;;;;24.28;51.58;99454.56;334588;29;764;-80
2022/07/16 00:33:52;;;;;;;482.25;436.60;;;;;;;24.27;51.87;99455.56;335341;29;1223;-80
2022/07/16 00:34:04;;;;;;;481.70;436.17;;;;;;;24.29;52.10;99453.56;339498;29;1172;-80
2022/07/16 00:34:15;;;;;;;479.05;433.50;;;;;;;24.28;52.16;99459.91;335736;29;1315;-80
2022/07/16 00:34:25;;;;;;;474.75;429.15;;;;;;;24.29;52.03;99461.59;337972;29;1018;-80
2022/07/16 00:34:36;;;;;;;481.67;435.93;;;;;;;24.29;52.39;99448.22;339172;28;1534;-80
2022/07/16 00:34:46;;;;;;;484.75;438.90;;;;;;;24.31;52.02;99448.91;337854;28;1859;-80
2022/07/16 00:34:56;;;;;;;489.17;443.17;;;;;;;24.28;51.99;99459.91;338332;29;1148;-80
2022/07/16 00:35:07;;;;;;;488.03;441.80;;;;;;;24.29;52.29;99457.06;338337;29;1950;-80
2022/07/16 00:35:18;;;;;;;488.80;442.50;;;;;;;24.31;52.46;99456.94;334883;29;2034;-80
2022/07/16 00:35:28;;;;;;;484.30;438.17;;;;;;;24.32;52.54;99461.28;336318;29;1020;-80
2022/07/16 00:35:38;;;;;;;487.77;441.63;;;;;;;24.30;52.53;99457.91;336544;29;2111;-80
2022/07/16 00:35:49;;;;;;;484.37;438.27;;;;;;;24.31;52.11;99457.75;336293;29;1587;-80
2022/07/16 00:35:59;;;;;;;476.90;431.05;;;;;;;24.30;52.30;99450.72;337107;29;1507;-80
2022/07/16 00:36:10;;;;;;;472.83;427.03;;;;;;;24.29;52.09;99448.22;336537;29;1202;-80
2022/07/16 00:36:20;;;;;;;481.48;435.73;;;;;;;24.30;52.20;99455.25;336739;29;1427;-80
2022/07/16 00:36:30;;;;;;;488.60;442.73;;;;;;;24.27;52.36;99453.72;334292;29;1291;-80
2022/07/16 00:36:41;;;;;;;490.50;444.80;;;;;;;24.28;51.93;99462.59;329515;29;1175;-80
2022/07/16 00:36:51;;;;;;;487.93;442.20;;;;;;;24.28;52.10;99455.41;331008;29;1808;-80
2022/07/16 00:37:02;;;;;;;483.23;437.50;;;;;;;24.30;52.10;99456.09;329190;29;2512;-80
2022/07/16 00:37:12;;;;;;;483.58;437.83;;;;;;;24.30;52.32;99457.91;329186;30;898;-80
2022/07/16 00:37:22;;;;;;;479.87;434.00;;;;;;;24.32;52.00;99458.59;327590;29;2757;-80
2022/07/16 00:37:33;;;;;;;483.08;437.20;;;;;;;24.30;51.89;99457.91;325520;29;2481;-80
2022/07/16 00:37:43;;;;;;;484.07;438.23;;;;;;;24.31;52.01;99459.59;327658;30;1357;-80
2022/07/16 00:37:54;;;;;;;489.75;444.00;;;;;;;24.30;52.01;99447.22;324204;30;2451;-80
2022/07/16 00:38:04;;;;;;;487.83;442.13;;;;;;;24.29;51.75;99450.88;324629;30;1701;-79
2022/07/16 00:38:15;;;;;;;491.05;445.17;;;;;;;24.28;51.85;99454.56;328966;30;1214;-79
2022/07/16 00:38:25;;;;;;;485.47;439.57;;;;;;;24.28;52.03;99451.88;327912;30;1356;-80
2022/07/16 00:38:35;;;;;;;488.83;442.80;;;;;;;24.27;52.00;99450.19;323851;30;1731;-80
2022/07/16 00:38:46;;;;;;;491.65;445.52;;;;;;;24.28;52.25;99459.91;322564;30;2058;-80
2022/07/16 00:38:56;;;;;;;493.07;446.97;;;;;;;24.28;52.31;99454.56;321086;30;1274;-80
2022/07/16 00:39:08;;;;;;;483.42;437.58;;;;;;;24.27;52.04;99442.19;320729;30;2556;-80
2022/07/16 00:39:18;;;;;;;474.55;428.90;;;;;;;24.27;52.40;99447.53;319076;30;3031;-80
2022/07/16 00:39:29;;;;;;;482.23;436.35;;;;;;;24.28;52.43;99457.22;322150;30;947;-80
2022/07/16 00:39:39;;;;;;;485.90;440.03;;;;;;;24.28;52.10;99450.03;321273;30;3342;-80
2022/07/16 00:39:50;;;;;;;481.33;435.70;;;;;;;24.30;52.51;99455.25;323541;30;3470;-80
2022/07/16 00:40:00;;;;;;;479.93;434.37;;;;;;;24.28;52.08;99459.91;323891;30;1417;-80
2022/07/16 00:40:11;;;;;;;482.88;437.17;;;;;;;24.27;52.16;99447.53;326550;30;3159;-80
2022/07/16 00:40:21;;;;;;;486.87;441.07;;;;;;;24.24;52.05;99453.19;321492;30;2191;-80
2022/07/16 00:40:32;;;;;;;480.90;435.35;;;;;;;24.21;52.50;99452.50;315113;31;1626;-80
2022/07/16 00:40:42;;;;;;;480.80;435.40;;;;;;;24.19;52.17;99454.47;313105;31;1204;-80
2022/07/16 00:40:53;;;;;;;485.27;439.58;;;;;;;24.19;52.47;99454.47;314656;30;2299;-80
2022/07/16 00:41:03;;;;;;;492.30;446.30;;;;;;;24.19;52.21;99450.97;313067;31;2922;-80
2022/07/16 00:41:16;;;;;;;486.25;440.38;;;;;;;24.20;52.33;99447.28;316460;31;1423;-80
2022/07/16 00:41:27;;;;;;;479.05;433.50;;;;;;;24.19;52.46;99454.47;309594;31;1361;-80
2022/07/16 00:41:38;;;;;;;481.85;436.23;;;;;;;24.19;52.46;99453.63;312774;31;5379;-80
2022/07/16 00:41:49;;;;;;;479.42;433.65;;;;;;;24.17;52.47;99450.28;311452;31;5308;-80
2022/07/16 00:41:59;;;;;;;484.97;438.87;;;;;;;24.17;52.43;99456.47;310657;31;1285;-80
2022/07/16 00:42:09;;;;;;;484.23;438.13;;;;;;;24.16;52.77;99453.94;311357;31;5713;-80
2022/07/16 00:42:20;;;;;;;493.20;446.97;;;;;;;24.17;52.47;99459.13;306717;32;4146;-80
2022/07/16 00:42:30;;;;;;;490.75;444.75;;;;;;;24.17;52.63;99459.13;304326;32;1255;-80
2022/07/16 00:42:41;;;;;;;492.17;446.00;;;;;;;24.15;52.49;99452.25;302144;32;1422;-80
2022/07/16 00:42:51;;;;;;;487.88;441.77;;;;;;;24.17;52.32;99458.28;300239;32;2671;-80
2022/07/16 00:43:02;;;;;;;497.57;450.97;;;;;;;24.17;52.35;99453.78;295997;33;4296;-80
2022/07/16 00:43:12;;;;;;;498.20;451.55;;;;;;;24.17;52.45;99461.81;291363;34;1467;-80
2022/07/16 00:43:23;;;;;;;503.13;456.43;;;;;;;24.19;52.25;99453.63;291399;33;5709;-80
2022/07/16 00:43:44;;;;;;;495.13;449.00;;;;;;;24.20;52.38;99458.84;291921;33;6175;-80
2022/07/16 00:44:03;;;;;;;485.00;439.40;;;;;;;24.20;52.28;99448.13;290068;33;6385;-80
2022/07/16 00:44:15;;;;;;;482.70;437.25;;;;;;;24.22;52.57;99450.66;290387;34;928;-80
2022/07/16 00:44:25;;;;;;;485.90;440.33;;;;;;;24.21;52.76;99452.50;282799;34;8981;-80
2022/07/16 00:44:36;;;;;;;495.17;449.15;;;;;;;24.19;52.43;99457.16;278103;34;7215;-80
2022/07/16 00:44:46;;;;;;;490.73;444.73;;;;;;;24.19;52.41;99457.16;277196;34;6367;-80
2022/07/16 00:44:57;;;;;;;496.77;450.57;;;;;;;24.20;52.60;99455.31;285560;34;865;-80
2022/07/16 00:45:08;;;;;;;499.23;453.02;;;;;;;24.22;52.24;99458.69;280616;34;4647;-80
2022/07/16 00:45:18;;;;;;;502.38;456.10;;;;;;;24.21;52.49;99455.16;278411;35;6885;-80
2022/07/16 00:45:28;;;;;;;496.17;449.97;;;;;;;24.19;52.18;99454.47;279396;35;1255;-80
2022/07/16 00:45:39;;;;;;;490.42;444.23;;;;;;;24.20;52.28;99453.47;274721;35;7356;-80
2022/07/16 00:48:01;;;;;;;459.37;413.07;;;;;;;24.17;52.62;99455.63;2497148;27;20474;-80
2022/07/16 00:48:11;;;;;;;492.70;446.50;;;;;;;24.17;53.02;99458.28;351506;28;1501;-79
2022/07/16 00:48:22;;;;;;;490.83;444.77;;;;;;;24.15;52.36;99458.44;349009;28;1290;-79
2022/07/16 00:48:32;;;;;;;494.90;448.67;;;;;;;24.16;52.57;99461.97;346645;28;1231;-79
2022/07/16 00:48:43;;;;;;;499.00;452.73;;;;;;;24.14;52.51;99464.78;349107;28;1319;-79
2022/07/16 00:48:54;;;;;;;497.77;451.48;;;;;;;24.17;52.49;99459.13;350225;28;1272;-79
2022/07/16 00:49:04;;;;;;;494.58;448.48;;;;;;;24.17;52.37;99452.94;348663;28;1245;-79
2022/07/16 00:49:15;;;;;;;491.43;445.33;;;;;;;24.17;52.44;99459.13;347534;28;1416;-79
2022/07/16 00:49:26;;;;;;;497.92;451.67;;;;;;;24.17;52.45;99464.50;348881;28;1398;-79
2022/07/16 00:49:36;;;;;;;492.33;446.20;;;;;;;24.17;52.18;99463.66;350444;28;1200;-79
2022/07/16 00:49:47;;;;;;;491.58;445.63;;;;;;;24.14;52.31;99459.44;349112;28;1194;-79
2022/07/16 00:49:57;;;;;;;489.30;443.33;;;;;;;24.13;52.33;99462.28;350198;28;1179;-79
2022/07/16 00:50:08;;;;;;;490.30;444.33;;;;;;;24.10;52.32;99458.06;348833;28;1270;-79
2022/07/16 00:50:18;;;;;;;496.27;450.10;;;;;;;24.10;52.63;99460.75;351898;28;982;-79
2022/07/16 00:50:28;;;;;;;500.58;454.35;;;;;;;24.10;52.61;99460.75;348772;28;1322;-79
2022/07/16 00:50:39;;;;;;;505.73;459.37;;;;;;;24.11;52.67;99459.75;349788;28;1204;-79
2022/07/16 00:50:49;;;;;;;502.35;456.15;;;;;;;24.09;52.71;99461.72;349223;28;1286;-79
2022/07/16 00:51:00;;;;;;;502.80;456.47;;;;;;;24.10;52.81;99458.06;349083;28;746;-79
2022/07/16 00:51:10;;;;;;;505.63;459.10;;;;;;;24.10;53.00;99457.22;349323;28;1322;-79
2022/07/16 00:51:24;;;;;;;506.70;460.10;;;;;;;24.12;53.06;99457.91;349115;28;1335;-79
2022/07/16 00:51:35;;;;;;;506.80;460.30;;;;;;;24.11;53.06;99465.09;348760;28;1392;-79
2022/07/16 00:51:47;;;;;;;500.25;453.92;;;;;;;24.10;53.30;99458.06;346213;28;1004;-79
2022/07/16 00:51:57;;;;;;;500.30;454.02;;;;;;;24.11;53.00;99454.41;346154;28;1283;-79
2022/07/16 00:52:08;;;;;;;496.70;450.60;;;;;;;24.12;53.00;99457.91;344161;28;1540;-79
2022/07/16 00:52:18;;;;;;;501.73;455.48;;;;;;;24.11;53.02;99459.75;346937;28;979;-79
2022/07/16 00:52:29;;;;;;;504.77;458.47;;;;;;;24.10;52.97;99460.75;346208;28;1310;-79
2022/07/16 00:52:39;;;;;;;503.30;456.97;;;;;;;24.11;52.89;99461.59;345559;28;1336;-79
2022/07/16 00:52:49;;;;;;;499.02;452.75;;;;;;;24.12;53.01;99456.09;345004;28;1304;-79
2022/07/16 00:53:00;;;;;;;493.50;447.40;;;;;;;24.13;52.92;99463.13;346134;28;1197;-79
2022/07/16 00:53:11;;;;;;;496.23;450.05;;;;;;;24.13;53.00;99457.75;343805;28;1636;-79
2022/07/16 00:53:21;;;;;;;499.25;453.05;;;;;;;24.12;53.08;99456.09;343515;28;1197;-79
2022/07/16 00:53:32;;;;;;;507.40;461.07;;;;;;;24.16;52.83;99461.97;344827;28;1161;-79
2022/07/16 00:53:43;;;;;;;507.67;461.40;;;;;;;24.13;53.18;99457.75;346458;28;1058;-79
2022/07/16 00:53:54;;;;;;;503.85;457.73;;;;;;;24.12;53.28;99456.09;348150;28;1294;-79
2022/07/16 00:54:05;;;;;;;502.23;456.00;;;;;;;24.13;52.97;99459.59;345895;28;1202;-79
2022/07/16 00:54:15;;;;;;;505.67;459.38;;;;;;;24.12;53.02;99456.09;342013;28;1185;-79
2022/07/16 00:54:26;;;;;;;503.63;457.23;;;;;;;24.11;52.75;99461.59;343995;28;1287;-79
2022/07/16 00:54:36;;;;;;;502.73;456.25;;;;;;;24.08;52.92;99453.88;344875;28;1377;-79
2022/07/16 00:54:46;;;;;;;505.13;458.57;;;;;;;24.08;52.78;99457.38;343752;28;857;-79
2022/07/16 00:54:57;;;;;;;507.23;460.65;;;;;;;24.05;53.12;99457.69;340140;29;907;-79
2022/07/16 00:55:08;;;;;;;502.23;456.03;;;;;;;24.08;52.73;99460.06;338776;29;1436;-79
2022/07/16 00:55:18;;;;;;;497.98;451.90;;;;;;;24.07;52.87;99458.38;342719;28;1268;-79
2022/07/16 00:55:29;;;;;;;502.27;456.07;;;;;;;24.09;52.88;99461.72;342163;28;1322;-79
2022/07/16 00:55:39;;;;;;;504.92;458.52;;;;;;;24.09;52.70;99460.88;336790;29;1183;-80
2022/07/16 00:55:49;;;;;;;506.30;459.73;;;;;;;24.09;52.82;99461.72;335948;29;1201;-80